M/V Le Conte — WZE4270 — position and weather

sailwx.info

Track history (hours):
 
Tides and Currents Weather Stations Pressure Air Temp Water Temp Dewpoint Dewpoint Depression Visibility Wind Speed Wind Dir Waves Ship Positions

M/V Le Conte

Owner: ALASKA MARINE HIGHWAY SYSTEM, JUNEAU, AK. More information available from US FCC via Universal Licensing System and Coast Guard Vessel Documentation Center.

Last reported at 2019-Aug-19 00:00 UTC. Time now 2019-Aug-20 10:22 UTC.
Position N 57°54' W 136°12'.

Type: Passenger vessel. MMSI: 338761000.

Wind from 320 at 18 knots

Barometer 1009.0 mb
Air temperature 16.0 ° C
Visibility: greater than 10.8 NM

Date/timePositionNaut miles runAvg speedWind from/ knotsBaromVisibWave heightAir tempDewpointWater temp
2019-Aug-19 00:00N 57°54' W 136°12'35 5.8 320 / 181009.010.8 16.0
2019-Aug-18 18:00N 58°18' W 135°24'17 8.4 030 / 171009.810.8 14.0
2019-Aug-18 16:00N 58°24' W 134°54'12 0.9 360 / 331009.810.8 13.0
2019-Aug-18 03:00N 58°12' W 134°54'1212.0 030 / 291006.410.8 16.0
2019-Aug-18 02:00N 58°00' W 134°54'1212.0 010 / 181006.810.8 15.0
2019-Aug-18 01:00N 57°48' W 134°54'7 1.0 360 / 311003.4 5.4 15.0
2019-Aug-17 18:00N 57°54' W 134°48'3015.1 330 / 231007.1 2.2 14.0
2019-Aug-17 16:00N 58°24' W 134°54'17 1.1 340 / 271008.1 5.4 13.0
2019-Aug-16 23:58N 58°17' W 135°23'714.9
2019-Aug-16 23:30N 58°22' W 135°32'612.9
2019-Aug-16 23:00N 58°23' W 135°44'0 0.2
2019-Aug-16 22:28N 58°23' W 135°44'0 0.0
2019-Aug-16 21:55N 58°23' W 135°44'2 4.3
2019-Aug-16 21:31N 58°22' W 135°45'815.7
2019-Aug-16 20:59N 58°15' W 135°36'8 0.2
2019-Aug-15 01:04N 58°09' W 135°27'2 1.2
2019-Aug-14 23:39N 58°07' W 135°28'2 7.7
2019-Aug-14 23:25N 58°09' W 135°27'410.8
2019-Aug-14 23:00N 58°13' W 135°30'714.8
2019-Aug-14 22:30N 58°18' W 135°41'6 9.8
2019-Aug-14 21:55N 58°23' W 135°44'0 0.0
2019-Aug-14 21:25N 58°23' W 135°44'0 0.0
2019-Aug-14 20:59N 58°23' W 135°44'3 5.5
2019-Aug-14 20:30N 58°21' W 135°45'814.9
2019-Aug-14 19:58N 58°16' W 135°32'10 0.2
2019-Aug-12 23:31N 58°12' W 135°15'715.9
2019-Aug-12 23:03N 58°15' W 135°28'115.8
2019-Aug-12 23:00N 58°15' W 135°29'814.8
2019-Aug-12 22:29N 58°19' W 135°42'5 9.3
2019-Aug-12 21:59N 58°23' W 135°44'0 0.0
2019-Aug-12 21:29N 58°23' W 135°44'0 0.4
2019-Aug-12 21:00N 58°23' W 135°43'510.8
2019-Aug-12 20:30N 58°18' W 135°41'816.0
2019-Aug-12 20:00N 58°13' W 135°29'12 0.6
2019-Aug-12 00:13N 58°09' W 135°08'315.4
2019-Aug-12 00:00N 58°09' W 135°15'713.8
2019-Aug-11 23:31N 58°08' W 135°28'1 0.5
2019-Aug-11 22:06N 58°08' W 135°29'1 6.8
2019-Aug-11 22:00N 58°09' W 135°28'510.2
2019-Aug-11 21:30N 58°13' W 135°31'714.9
2019-Aug-11 21:01N 58°18' W 135°42'510.8
2019-Aug-11 20:30N 58°23' W 135°44'0 0.0
2019-Aug-11 20:00N 58°23' W 135°44'0 0.0
2019-Aug-11 19:30N 58°23' W 135°44'1 1.4
2019-Aug-11 19:01N 58°23' W 135°44'713.4
2019-Aug-11 18:30N 58°17' W 135°37'12 0.3
2019-Aug-10 00:53N 58°09' W 135°19'5 2.7
2019-Aug-09 23:01N 58°08' W 135°29'0 7.8
2019-Aug-09 23:00N 58°08' W 135°29'5 9.5
2019-Aug-09 22:29N 58°13' W 135°29'714.8
2019-Aug-09 22:00N 58°17' W 135°40'612.9
2019-Aug-09 21:30N 58°23' W 135°44'0 0.5
2019-Aug-09 21:00N 58°23' W 135°44'0 0.0
2019-Aug-09 20:30N 58°23' W 135°44'0 0.4
2019-Aug-09 20:01N 58°23' W 135°43'612.2
2019-Aug-09 19:30N 58°17' W 135°40'916.8
2019-Aug-09 18:59N 58°14' W 135°24'  
Track history (hours):
 
Tides and Currents Weather Stations Pressure Air Temp Water Temp Dewpoint Dewpoint Depression Visibility Wind Speed Wind Dir Waves Ship Positions

M/V Le Conte

Owner: ALASKA MARINE HIGHWAY SYSTEM, JUNEAU, AK. More information available from US FCC via Universal Licensing System and Coast Guard Vessel Documentation Center.

Last reported at 2019-Aug-19 00:00 UTC. Time now 2019-Aug-20 10:22 UTC.
Position N 57°54' W 136°12'.

Type: Passenger vessel. MMSI: 338761000.

Wind from 320 at 18 knots

Barometer 1009.0 mb
Air temperature 16.0 ° C
Visibility: greater than 10.8 NM

Date/timePositionNaut miles runAvg speedWind from/ knotsBaromVisibWave heightAir tempDewpointWater temp
2019-Aug-19 00:00N 57°54' W 136°12'35 5.8 320 / 181009.010.8 16.0
2019-Aug-18 18:00N 58°18' W 135°24'17 8.4 030 / 171009.810.8 14.0
2019-Aug-18 16:00N 58°24' W 134°54'12 0.9 360 / 331009.810.8 13.0
2019-Aug-18 03:00N 58°12' W 134°54'1212.0 030 / 291006.410.8 16.0
2019-Aug-18 02:00N 58°00' W 134°54'1212.0 010 / 181006.810.8 15.0
2019-Aug-18 01:00N 57°48' W 134°54'7 1.0 360 / 311003.4 5.4 15.0
2019-Aug-17 18:00N 57°54' W 134°48'3015.1 330 / 231007.1 2.2 14.0
2019-Aug-17 16:00N 58°24' W 134°54'17 1.1 340 / 271008.1 5.4 13.0
2019-Aug-16 23:58N 58°17' W 135°23'714.9
2019-Aug-16 23:30N 58°22' W 135°32'612.9
2019-Aug-16 23:00N 58°23' W 135°44'0 0.2
2019-Aug-16 22:28N 58°23' W 135°44'0 0.0
2019-Aug-16 21:55N 58°23' W 135°44'2 4.3
2019-Aug-16 21:31N 58°22' W 135°45'815.7
2019-Aug-16 20:59N 58°15' W 135°36'8 0.2
2019-Aug-15 01:04N 58°09' W 135°27'2 1.2
2019-Aug-14 23:39N 58°07' W 135°28'2 7.7
2019-Aug-14 23:25N 58°09' W 135°27'410.8
2019-Aug-14 23:00N 58°13' W 135°30'714.8
2019-Aug-14 22:30N 58°18' W 135°41'6 9.8
2019-Aug-14 21:55N 58°23' W 135°44'0 0.0
2019-Aug-14 21:25N 58°23' W 135°44'0 0.0
2019-Aug-14 20:59N 58°23' W 135°44'3 5.5
2019-Aug-14 20:30N 58°21' W 135°45'814.9
2019-Aug-14 19:58N 58°16' W 135°32'10 0.2
2019-Aug-12 23:31N 58°12' W 135°15'715.9
2019-Aug-12 23:03N 58°15' W 135°28'115.8
2019-Aug-12 23:00N 58°15' W 135°29'814.8
2019-Aug-12 22:29N 58°19' W 135°42'5 9.3
2019-Aug-12 21:59N 58°23' W 135°44'0 0.0
2019-Aug-12 21:29N 58°23' W 135°44'0 0.4
2019-Aug-12 21:00N 58°23' W 135°43'510.8
2019-Aug-12 20:30N 58°18' W 135°41'816.0
2019-Aug-12 20:00N 58°13' W 135°29'12 0.6
2019-Aug-12 00:13N 58°09' W 135°08'315.4
2019-Aug-12 00:00N 58°09' W 135°15'713.8
2019-Aug-11 23:31N 58°08' W 135°28'1 0.5
2019-Aug-11 22:06N 58°08' W 135°29'1 6.8
2019-Aug-11 22:00N 58°09' W 135°28'510.2
2019-Aug-11 21:30N 58°13' W 135°31'714.9
2019-Aug-11 21:01N 58°18' W 135°42'510.8
2019-Aug-11 20:30N 58°23' W 135°44'0 0.0
2019-Aug-11 20:00N 58°23' W 135°44'0 0.0
2019-Aug-11 19:30N 58°23' W 135°44'1 1.4
2019-Aug-11 19:01N 58°23' W 135°44'713.4
2019-Aug-11 18:30N 58°17' W 135°37'12 0.3
2019-Aug-10 00:53N 58°09' W 135°19'5 2.7
2019-Aug-09 23:01N 58°08' W 135°29'0 7.8
2019-Aug-09 23:00N 58°08' W 135°29'5 9.5
2019-Aug-09 22:29N 58°13' W 135°29'714.8
2019-Aug-09 22:00N 58°17' W 135°40'612.9
2019-Aug-09 21:30N 58°23' W 135°44'0 0.5
2019-Aug-09 21:00N 58°23' W 135°44'0 0.0
2019-Aug-09 20:30N 58°23' W 135°44'0 0.4
2019-Aug-09 20:01N 58°23' W 135°43'612.2
2019-Aug-09 19:30N 58°17' W 135°40'916.8
2019-Aug-09 18:59N 58°14' W 135°24'  

Dump ship's entire track history